Culver, OR (97734)

3:30 AM PDT on August 01, 2015 (GMT -0700)
APRSWXNET | | Change Station
CLOSE
Current Station
Personal Weather Station
Location: Culver, OR
Elevation: 2667 ft
Nearby Weather Stations
Active Advisory: Fire Weather Warning Active Notice: Record Report

Elev 2667 ft 44.53 °N, 121.21 °W | Updated 23 minutes ago

Clear
Clear
64 °F
Feels Like 64 °F
N
0
Wind Variable Wind from SE
Gusts 0.0 mph

Today
High -- | Low -- °F
--% Chance of Precip.
Yesterday
High -- | Low -- °F
Precip. -- in
5:51 AM 8:30 PM
Full, 99% visible
Pressure 29.98 in
Visibility 10.0 miles
Clouds Clear
Dew Point 37 °F
Humidity 37%
Rainfall in
Snow Depth Not available.
UV 0 out of 12
Pollen 4.90 out of 12
Air Quality Not available.
Flu Activity Not available.
METAR KRDM 010956Z AUTO 16005KT 10SM CLR 16/M01 A3007 RMK AO2 SLP150 T01561011

More Conditions Fewer Conditions

Pressure 29.98 in
Visibility 10.0 miles
Clouds Clear
Dew Point 37 °F
Humidity 37%
Rainfall in
Snow Depth Not available.
UV 0 out of 12
Pollen 4.90 out of 12
Air Quality Not available.
Flu Activity Not available.
METAR KRDM 010956Z AUTO 16005KT 10SM CLR 16/M01 A3007 RMK AO2 SLP150 T01561011

More Conditions Fewer Conditions

10-Day Weather Forecast

×

Almanac

Astronomy

Aug. 01, 2015 Rise Set
Actual Time
Civil Twilight
Nautical Twilight
Astronomical Twilight
Moon
Length of Visible Light
Length of Day
Tomorrow will be .
, % of the Moon is Illuminated

Today's Extremes

State Highs State Lows

Community

WunderPhotos

Upload Photos

1,842,905 photos uploaded!

WunderBlogs® & News

Nearby

Air Quality

  Air Quality AQ Index Pollutant
Not available.

Snow Depth

Station Depth Elevation

Earthquake Activity

City Distance Mag. Time & Date
Minimum magnitude displayed is 2.5.

Coastal Water Temperatures

Place Temperature

Stations

Nearby Weather Stations

Station Location Temp. Windchill Dew Point Humidity Wind Precip. Elev Updated Type
                   
Fire Weather Warning
Statement as of 8:53 PM PDT on July 31, 2015

... Red flag warning remains in effect until 10 PM PDT Saturday
for very hot and dry conditions for fire weather zones or640...
wa641... or642... and wa643...

* affected area... or/wa639... or640... wa641... or642... and wa643.

* Timing... hot and dry conditions will continue through Saturday.

* Wind... winds will be out of the west will range from 4 to 8 mph
Saturday.

* Humidity... 8 to 11 percent.

* Haines... 6.

* Impacts... any fires that develop will likely spread rapidly.
Corner creek... West Fork... and Blue Creek fire should be
prepared for extreme fire behavior. Outdoor burning is not
recommended.

Precautionary/preparedness actions...

A red flag warning means that critical fire weather conditions
are either occurring now... or will shortly. A combination of
strong winds... low relative humidity... and warm temperatures can
contribute to extreme fire behavior.